createdAt,value
2022-12-14T00:01:40.226Z,64.23
2022-12-14T00:04:07.496Z,76.33
2022-12-14T00:06:35.332Z,69.37
2022-12-14T00:09:06.101Z,63.60
2022-12-14T00:11:34.396Z,72.20
2022-12-14T00:14:02.372Z,61.63
2022-12-14T00:16:30.586Z,68.00
2022-12-14T00:18:58.683Z,77.13
2022-12-14T00:21:26.311Z,66.60
2022-12-14T00:23:54.352Z,67.70
2022-12-14T00:26:23.219Z,70.60
2022-12-14T00:28:51.316Z,74.17
2022-12-14T00:31:19.065Z,67.97
2022-12-14T00:33:46.671Z,70.23
2022-12-14T00:36:14.854Z,72.03
2022-12-14T00:38:42.148Z,70.43
2022-12-14T00:41:09.795Z,61.37
2022-12-14T00:43:37.090Z,69.93
2022-12-14T00:46:05.547Z,66.33
2022-12-14T00:48:33.314Z,65.40
2022-12-14T00:51:00.997Z,69.33
2022-12-14T00:53:28.314Z,68.77
2022-12-14T00:55:55.590Z,69.27
2022-12-14T00:58:24.694Z,74.40
2022-12-14T01:01:02.388Z,71.70
2022-12-14T01:03:30.529Z,61.20
2022-12-14T01:05:58.120Z,74.77
2022-12-14T01:08:25.423Z,65.07
2022-12-14T01:10:53.134Z,76.80
2022-12-14T01:13:20.424Z,73.23
2022-12-14T01:15:47.759Z,60.87
2022-12-14T01:18:15.091Z,60.40
2022-12-14T01:20:42.391Z,73.43
2022-12-14T01:23:09.676Z,74.60
2022-12-14T01:25:36.953Z,56.23
2022-12-14T01:28:04.345Z,59.70
2022-12-14T01:30:31.603Z,67.03
2022-12-14T01:32:58.877Z,67.37
2022-12-14T01:35:26.163Z,73.17
2022-12-14T01:37:53.456Z,62.00
2022-12-14T01:40:20.738Z,68.77
2022-12-14T01:42:47.992Z,65.73
2022-12-14T01:45:20.146Z,62.27
2022-12-14T01:47:50.148Z,60.03
2022-12-14T01:50:26.958Z,56.37
2022-12-14T01:52:57.427Z,55.83
2022-12-14T01:55:26.791Z,67.83
2022-12-14T01:58:01.451Z,57.50
2022-12-14T02:00:28.718Z,59.57
2022-12-14T02:03:00.526Z,70.67
2022-12-14T02:05:28.735Z,53.20
2022-12-14T02:07:56.862Z,55.43
2022-12-14T02:10:26.159Z,55.50
2022-12-14T02:12:57.968Z,64.63
2022-12-14T02:15:25.883Z,51.17
2022-12-14T02:17:53.172Z,62.53
2022-12-14T02:20:21.702Z,59.70
2022-12-14T02:22:54.836Z,53.90
2022-12-14T02:25:40.900Z,67.10
2022-12-14T02:28:26.704Z,55.53
2022-12-14T02:31:01.577Z,49.33
2022-12-14T02:33:42.674Z,55.47
2022-12-14T02:36:14.762Z,47.73
2022-12-14T02:39:11.348Z,58.33
2022-12-14T02:41:55.212Z,45.60
2022-12-14T02:44:22.458Z,63.40
2022-12-14T02:46:58.555Z,55.17
2022-12-14T02:49:49.153Z,57.90
2022-12-14T02:52:25.793Z,53.43
2022-12-14T02:55:02.277Z,58.47
2022-12-14T02:57:32.888Z,60.33
2022-12-14T03:00:02.840Z,60.50
2022-12-14T03:02:34.014Z,51.97
2022-12-14T03:05:02.283Z,59.23
2022-12-14T03:07:40.088Z,49.90
2022-12-14T03:10:19.424Z,54.53
2022-12-14T03:12:50.231Z,48.37
2022-12-14T03:15:18.909Z,45.67
2022-12-14T03:17:49.149Z,50.37
2022-12-14T03:20:18.973Z,54.57
2022-12-14T03:22:57.474Z,50.13
2022-12-14T03:25:28.734Z,59.30
2022-12-14T03:28:16.902Z,58.23
2022-12-14T03:30:59.837Z,53.70
2022-12-14T03:33:29.425Z,55.83
2022-12-14T03:36:03.230Z,49.50
2022-12-14T03:38:40.890Z,53.33
2022-12-14T03:41:28.227Z,53.17
2022-12-14T03:44:14.608Z,44.43
2022-12-14T03:46:47.791Z,55.83
2022-12-14T03:49:21.141Z,61.40
2022-12-14T03:51:51.466Z,48.97
2022-12-14T03:54:23.982Z,59.73
2022-12-14T03:56:58.768Z,54.47
2022-12-14T03:59:35.605Z,57.37
2022-12-14T04:02:06.310Z,52.67
2022-12-14T04:04:42.699Z,59.73
2022-12-14T04:07:22.197Z,52.50
2022-12-14T04:10:04.475Z,51.33
2022-12-14T04:13:18.881Z,42.90
2022-12-14T04:16:06.462Z,51.87
2022-12-14T04:18:59.885Z,46.90
2022-12-14T04:21:33.821Z,51.30
2022-12-14T04:24:26.289Z,40.00
2022-12-14T04:26:56.534Z,46.63
2022-12-14T04:29:47.449Z,54.33
2022-12-14T04:32:20.908Z,54.73
2022-12-14T04:34:51.139Z,46.90
2022-12-14T04:37:21.086Z,53.73
2022-12-14T04:40:14.499Z,46.77
2022-12-14T04:42:45.821Z,58.50
2022-12-14T04:45:21.444Z,55.30
2022-12-14T04:48:04.445Z,52.63
2022-12-14T04:50:34.904Z,58.97
2022-12-14T04:53:08.605Z,52.93
2022-12-14T04:55:54.363Z,42.13
2022-12-14T04:58:26.506Z,67.05
2022-12-14T05:01:03.987Z,64.30
2022-12-14T05:03:33.872Z,55.27
2022-12-14T05:06:13.433Z,54.17
2022-12-14T05:09:00.090Z,56.60
2022-12-14T05:11:52.548Z,65.37
2022-12-14T05:14:23.653Z,211.90
2022-12-14T05:16:51.268Z,51.37
2022-12-14T05:19:18.796Z,64.60
2022-12-14T05:21:49.407Z,48.17
2022-12-14T05:24:17.172Z,48.53
2022-12-14T05:26:45.161Z,85.13
2022-12-14T05:29:13.018Z,50.97
2022-12-14T05:31:42.621Z,45.20
2022-12-14T05:34:16.930Z,41.63
2022-12-14T05:36:44.612Z,51.10
2022-12-14T05:39:12.045Z,51.77
2022-12-14T05:41:39.420Z,61.17
2022-12-14T05:44:10.384Z,46.57
2022-12-14T05:46:53.562Z,47.90
2022-12-14T05:49:25.361Z,49.30
2022-12-14T05:51:52.723Z,48.67
2022-12-14T05:54:20.116Z,40.73
2022-12-14T05:56:47.581Z,40.07
2022-12-14T05:59:15.938Z,49.70
2022-12-14T06:01:43.788Z,46.87
2022-12-14T06:04:15.710Z,45.07
2022-12-14T06:06:43.484Z,41.20
2022-12-14T06:09:13.200Z,45.10
2022-12-14T06:11:41.754Z,37.90
2022-12-14T06:14:10.121Z,39.37
2022-12-14T06:16:39.964Z,40.13
2022-12-14T06:19:07.441Z,41.43
2022-12-14T06:21:35.979Z,44.20
2022-12-14T06:24:03.972Z,42.87
2022-12-14T06:26:31.980Z,39.93
2022-12-14T06:28:59.833Z,42.37
2022-12-14T06:31:28.831Z,39.67
2022-12-14T06:33:57.956Z,39.87
2022-12-14T06:36:27.200Z,39.70
2022-12-14T06:38:55.400Z,39.53
2022-12-14T06:41:24.009Z,34.57
2022-12-14T06:43:51.614Z,45.53
2022-12-14T06:46:20.466Z,40.73
2022-12-14T06:48:51.492Z,34.27
2022-12-14T06:51:18.896Z,35.17
2022-12-14T06:53:46.658Z,32.80
2022-12-14T06:56:15.488Z,43.07
2022-12-14T06:58:43.099Z,36.23
2022-12-14T07:01:13.297Z,38.80
2022-12-14T07:03:41.364Z,37.07
2022-12-14T07:06:09.192Z,37.37
2022-12-14T07:08:37.525Z,40.87
2022-12-14T07:11:09.415Z,46.37
2022-12-14T07:13:36.808Z,49.77
2022-12-14T07:16:05.153Z,41.23
2022-12-14T07:18:32.965Z,35.87
2022-12-14T07:21:03.563Z,36.57
2022-12-14T07:23:32.482Z,36.30
2022-12-14T07:26:04.110Z,43.33
2022-12-14T07:28:31.583Z,37.57
2022-12-14T07:30:59.792Z,32.77
2022-12-14T07:33:28.316Z,36.80
2022-12-14T07:36:06.182Z,28.53
2022-12-14T07:38:34.137Z,43.13
2022-12-14T07:41:09.971Z,42.17
2022-12-14T07:43:37.962Z,43.23
2022-12-14T07:46:07.035Z,40.50
2022-12-14T07:48:34.567Z,40.57
2022-12-14T07:51:06.548Z,41.57
2022-12-14T07:53:34.385Z,33.30
2022-12-14T07:56:06.087Z,37.13
2022-12-14T07:58:36.600Z,40.43
2022-12-14T08:01:10.907Z,46.77
2022-12-14T08:03:40.367Z,46.83
2022-12-14T08:06:08.626Z,35.57
2022-12-14T08:08:36.119Z,35.97
2022-12-14T08:11:05.841Z,42.03
2022-12-14T08:13:33.496Z,37.93
2022-12-14T08:16:08.138Z,40.40
2022-12-14T08:18:35.916Z,36.73
2022-12-14T08:21:04.745Z,41.33
2022-12-14T08:23:33.199Z,39.13
2022-12-14T08:26:01.504Z,39.83
2022-12-14T08:28:29.759Z,41.37
2022-12-14T08:30:57.884Z,41.40
2022-12-14T08:33:25.329Z,45.13
2022-12-14T08:35:52.837Z,44.03
2022-12-14T08:38:20.321Z,45.90
2022-12-14T08:40:47.855Z,42.47
2022-12-14T08:43:16.448Z,33.60
2022-12-14T08:45:46.365Z,43.57
2022-12-14T08:48:13.776Z,41.13
2022-12-14T08:50:41.177Z,44.20
2022-12-14T08:53:08.741Z,52.60
2022-12-14T08:55:38.671Z,46.70
2022-12-14T08:58:06.585Z,50.07
2022-12-14T09:00:34.004Z,48.60
2022-12-14T09:03:01.548Z,52.20
2022-12-14T09:05:29.030Z,42.13
2022-12-14T09:07:56.451Z,39.73
2022-12-14T09:10:23.919Z,44.60
2022-12-14T09:12:51.284Z,34.43
2022-12-14T09:15:18.700Z,43.83
2022-12-14T09:17:46.088Z,38.53
2022-12-14T09:20:14.169Z,37.60
2022-12-14T09:22:41.509Z,35.60
2022-12-14T09:25:09.411Z,39.73
2022-12-14T09:27:36.807Z,34.07
2022-12-14T09:30:04.605Z,40.57
2022-12-14T09:32:32.228Z,39.87
2022-12-14T09:34:59.593Z,40.83
2022-12-14T09:37:27.080Z,35.13
2022-12-14T09:39:54.738Z,42.07
2022-12-14T09:42:40.976Z,49.60
2022-12-14T09:45:17.663Z,43.47
2022-12-14T09:47:53.567Z,36.10
2022-12-14T09:50:21.635Z,33.97
2022-12-14T09:52:56.844Z,53.90
2022-12-14T09:55:30.025Z,40.43
2022-12-14T09:58:00.459Z,41.33
2022-12-14T10:00:33.105Z,38.70
2022-12-14T10:03:19.428Z,47.83
2022-12-14T10:05:52.868Z,46.70
2022-12-14T10:08:20.201Z,41.43
2022-12-14T10:10:47.578Z,38.13
2022-12-14T10:13:34.337Z,52.20
2022-12-14T10:16:10.148Z,46.13
2022-12-14T10:21:32.316Z,42.73
2022-12-14T10:24:02.495Z,40.90
2022-12-14T10:26:36.570Z,37.13
2022-12-14T10:29:06.709Z,43.10
2022-12-14T10:31:34.147Z,36.37
2022-12-14T10:34:06.501Z,35.90
2022-12-14T10:36:40.523Z,36.73
2022-12-14T10:39:17.859Z,39.07
2022-12-14T10:41:51.423Z,40.73
2022-12-14T10:44:37.663Z,39.30
2022-12-14T10:47:19.965Z,41.57
2022-12-14T10:50:06.939Z,35.60
2022-12-14T10:52:37.647Z,34.53
2022-12-14T10:55:10.584Z,34.20
2022-12-14T10:57:40.601Z,46.17
2022-12-14T11:00:18.474Z,37.20
2022-12-14T11:02:51.340Z,36.13
2022-12-14T11:05:34.159Z,29.53
2022-12-14T11:08:04.016Z,34.73
2022-12-14T11:10:41.438Z,30.40
2022-12-14T11:13:17.024Z,32.47
2022-12-14T11:15:48.614Z,34.90
2022-12-14T11:18:16.120Z,33.37
2022-12-14T11:20:49.679Z,32.20
2022-12-14T11:23:21.631Z,37.27
2022-12-14T11:25:54.402Z,37.83
2022-12-14T11:28:36.505Z,33.43
2022-12-14T11:31:06.215Z,37.83
2022-12-14T11:33:35.798Z,31.53
2022-12-14T11:36:03.540Z,35.80
2022-12-14T11:38:31.798Z,40.17
2022-12-14T11:41:05.912Z,31.90
2022-12-14T11:43:38.797Z,29.87
2022-12-14T11:46:07.527Z,25.07
2022-12-14T11:48:38.478Z,33.57
2022-12-14T11:51:10.925Z,32.90
2022-12-14T11:53:38.644Z,33.13
2022-12-14T11:56:08.056Z,35.77
2022-12-14T11:58:38.416Z,35.10
2022-12-14T12:01:07.421Z,25.27
2022-12-14T12:03:37.307Z,22.60
2022-12-14T12:06:09.473Z,24.00
2022-12-14T12:08:38.321Z,27.47
2022-12-14T12:11:14.870Z,29.77
2022-12-14T12:13:45.041Z,24.90
2022-12-14T12:16:20.096Z,28.53
2022-12-14T12:18:51.651Z,31.50
2022-12-14T12:21:29.824Z,26.03
2022-12-14T12:24:05.885Z,28.50
2022-12-14T12:26:36.578Z,25.10
2022-12-14T12:29:04.210Z,27.77
2022-12-14T12:31:33.419Z,27.70
2022-12-14T12:34:06.309Z,30.57
2022-12-14T12:36:33.812Z,28.00
2022-12-14T12:39:12.902Z,20.33
2022-12-14T12:42:05.761Z,23.73
2022-12-14T12:44:41.527Z,20.40
2022-12-14T12:47:38.244Z,26.37
2022-12-14T12:50:02.846Z,23.80
2022-12-14T12:52:33.552Z,23.53
2022-12-14T12:55:08.723Z,30.53
2022-12-14T12:57:39.457Z,24.23
2022-12-14T13:00:07.619Z,35.57
2022-12-14T13:02:43.229Z,24.63
2022-12-14T13:05:45.714Z,26.23
2022-12-14T13:08:09.745Z,30.20
2022-12-14T13:10:50.634Z,37.70
2022-12-14T13:13:29.963Z,24.07
2022-12-14T13:16:06.999Z,29.33
2022-12-14T13:21:35.253Z,30.27
2022-12-14T13:24:03.455Z,33.63
2022-12-14T13:26:57.622Z,32.37
2022-12-14T13:29:51.573Z,25.60
2022-12-14T13:32:36.925Z,23.37
2022-12-14T13:35:23.951Z,31.07
2022-12-14T13:38:09.893Z,29.23
2022-12-14T13:40:43.634Z,30.93
2022-12-14T13:43:49.597Z,26.97
2022-12-14T13:46:21.372Z,33.57
2022-12-14T13:48:50.410Z,35.47
2022-12-14T13:51:23.429Z,32.83
2022-12-14T13:53:56.992Z,33.37
2022-12-14T13:56:32.710Z,34.93
2022-12-14T13:59:02.796Z,30.33
2022-12-14T14:01:45.229Z,29.70
2022-12-14T14:04:15.655Z,28.73
2022-12-14T14:06:43.226Z,29.87
2022-12-14T14:09:29.532Z,32.17
2022-12-14T14:11:58.631Z,24.67
2022-12-14T14:14:44.832Z,21.00
2022-12-14T14:17:47.377Z,28.50
2022-12-14T14:20:33.105Z,21.57
2022-12-14T14:23:15.959Z,15.10
2022-12-14T14:25:46.124Z,18.43
2022-12-14T14:28:22.428Z,16.93
2022-12-14T14:30:51.559Z,19.37
2022-12-14T14:33:49.737Z,18.87
2022-12-14T14:36:25.900Z,19.03
2022-12-14T14:38:55.398Z,21.97
2022-12-14T14:41:25.356Z,19.20
2022-12-14T14:44:03.961Z,20.43
2022-12-14T14:46:37.017Z,20.27
2022-12-14T14:49:05.330Z,22.13
2022-12-14T14:51:36.420Z,24.33
2022-12-14T14:57:26.384Z,24.03
2022-12-14T14:59:59.120Z,28.00
2022-12-14T15:02:33.784Z,20.83
2022-12-14T15:07:49.682Z,23.53
2022-12-14T15:10:23.172Z,22.60
2022-12-14T15:12:53.628Z,27.13
2022-12-14T15:15:30.321Z,37.80
2022-12-14T15:18:16.080Z,23.33
2022-12-14T15:20:50.379Z,21.50
2022-12-14T15:23:17.848Z,24.83
2022-12-14T15:25:45.217Z,21.43
2022-12-14T15:28:17.044Z,24.00
2022-12-14T15:30:48.057Z,23.97
2022-12-14T15:33:24.372Z,21.50
2022-12-14T15:35:51.901Z,26.33
2022-12-14T15:38:26.742Z,26.30
2022-12-14T15:40:58.604Z,21.63
2022-12-14T15:43:26.991Z,25.03
2022-12-14T15:46:03.149Z,26.37
2022-12-14T15:48:32.874Z,23.77
2022-12-14T15:51:14.784Z,24.23
2022-12-14T15:53:42.124Z,21.60
2022-12-14T15:56:28.799Z,22.17
2022-12-14T15:59:00.500Z,30.97
2022-12-14T16:01:38.023Z,29.57
2022-12-14T16:04:07.436Z,31.90
2022-12-14T16:06:37.996Z,34.67
2022-12-14T16:09:16.889Z,40.65
2022-12-14T16:11:45.222Z,31.43
2022-12-14T16:14:31.284Z,37.05
2022-12-14T16:16:58.872Z,34.57
2022-12-14T16:19:29.845Z,31.07
2022-12-14T16:22:12.795Z,31.60
2022-12-14T16:24:53.294Z,31.23
2022-12-14T16:27:20.883Z,27.37
2022-12-14T16:30:04.752Z,27.27
2022-12-14T16:32:32.636Z,27.80
2022-12-14T16:35:01.325Z,26.57
2022-12-14T16:37:33.352Z,32.00
2022-12-14T16:40:01.383Z,35.83
2022-12-14T16:42:32.055Z,31.47
2022-12-14T16:44:59.451Z,31.40
2022-12-14T16:47:35.808Z,28.77
2022-12-14T16:50:03.896Z,33.03
2022-12-14T16:52:32.684Z,48.80
2022-12-14T16:55:19.842Z,35.53
2022-12-14T16:57:50.399Z,38.23
2022-12-14T17:00:21.012Z,30.97
2022-12-14T17:02:54.727Z,31.90
2022-12-14T17:05:23.568Z,32.63
2022-12-14T17:07:51.112Z,30.83
2022-12-14T17:10:20.729Z,32.70
2022-12-14T17:12:49.086Z,28.43
2022-12-14T17:15:17.507Z,37.20
2022-12-14T17:17:45.778Z,37.47
2022-12-14T17:20:27.771Z,33.27
2022-12-14T17:22:58.701Z,38.20
2022-12-14T17:25:29.942Z,40.43
2022-12-14T17:28:00.219Z,40.03
2022-12-14T17:30:27.636Z,36.00
2022-12-14T17:32:56.239Z,37.13
2022-12-14T17:35:25.256Z,28.37
2022-12-14T17:37:52.919Z,41.10
2022-12-14T17:40:20.290Z,32.03
2022-12-14T17:42:52.946Z,26.97
2022-12-14T17:45:24.718Z,33.47
2022-12-14T17:47:52.292Z,38.90
2022-12-14T17:50:20.085Z,37.17
2022-12-14T17:52:48.074Z,37.47
2022-12-14T17:55:19.800Z,39.87
2022-12-14T17:57:47.570Z,37.47
2022-12-14T18:00:44.161Z,36.07
2022-12-14T18:03:12.440Z,39.00
2022-12-14T18:05:46.537Z,29.97
2022-12-14T18:08:16.416Z,36.37
2022-12-14T18:10:43.945Z,37.33
2022-12-14T18:13:11.954Z,33.93
2022-12-14T18:15:40.730Z,35.77
2022-12-14T18:18:08.217Z,40.57
2022-12-14T18:20:36.668Z,35.23
2022-12-14T18:23:04.589Z,42.97
2022-12-14T18:25:32.012Z,37.33
2022-12-14T18:28:00.427Z,36.03
2022-12-14T18:30:32.111Z,34.67
2022-12-14T18:33:04.262Z,35.17
2022-12-14T18:35:33.063Z,39.83
2022-12-14T18:38:00.788Z,37.47
2022-12-14T18:40:29.377Z,34.53
2022-12-14T18:42:57.447Z,46.30
2022-12-14T18:45:26.424Z,39.00
2022-12-14T18:47:55.212Z,35.70
2022-12-14T18:50:23.016Z,38.87
2022-12-14T18:52:50.494Z,35.93
2022-12-14T18:55:19.399Z,38.17
2022-12-14T18:57:48.012Z,37.23
2022-12-14T19:00:17.289Z,39.97
2022-12-14T19:02:46.785Z,44.13
2022-12-14T19:05:17.917Z,37.90
2022-12-14T19:07:45.741Z,37.70
2022-12-14T19:10:19.989Z,38.20
2022-12-14T19:12:48.044Z,56.97
2022-12-14T19:15:17.583Z,46.67
2022-12-14T19:17:45.092Z,49.73
2022-12-14T19:20:13.541Z,50.00
2022-12-14T19:22:40.944Z,41.50
2022-12-14T19:25:09.040Z,63.53
2022-12-14T19:28:15.402Z,56.03
2022-12-14T19:30:24.395Z,56.67
2022-12-14T19:32:56.038Z,63.73
2022-12-14T19:35:25.191Z,56.47
2022-12-14T19:37:53.037Z,50.83
2022-12-14T19:40:21.619Z,60.23
2022-12-14T19:42:49.018Z,51.33
2022-12-14T19:45:17.497Z,69.33
2022-12-14T19:47:44.914Z,75.63
2022-12-14T19:50:13.558Z,75.53
2022-12-14T19:52:41.277Z,78.97
2022-12-14T19:55:10.117Z,82.77
2022-12-14T19:57:38.447Z,85.97
2022-12-14T20:00:07.557Z,71.00
2022-12-14T20:02:37.827Z,67.23
2022-12-14T20:05:08.238Z,61.73
2022-12-14T20:07:41.852Z,49.93
2022-12-14T20:10:11.169Z,46.53
2022-12-14T20:12:38.643Z,46.03
2022-12-14T20:15:06.834Z,62.47
2022-12-14T20:17:34.255Z,52.80
2022-12-14T20:20:01.692Z,49.77
2022-12-14T20:22:29.070Z,44.87
2022-12-14T20:24:56.534Z,51.30
2022-12-14T20:27:23.908Z,47.93
2022-12-14T20:29:51.450Z,46.37
2022-12-14T20:32:18.831Z,57.33
2022-12-14T20:34:46.199Z,59.37
2022-12-14T20:37:13.707Z,61.87
2022-12-14T20:39:41.111Z,54.33
2022-12-14T20:42:09.035Z,61.43
2022-12-14T20:44:37.548Z,57.57
2022-12-14T20:47:05.139Z,58.87
2022-12-14T20:49:32.956Z,66.07
2022-12-14T20:52:00.371Z,61.00
2022-12-14T20:54:29.384Z,70.30
2022-12-14T20:56:57.331Z,83.70
2022-12-14T20:59:25.160Z,83.73
2022-12-14T21:01:56.252Z,76.40
2022-12-14T21:04:24.412Z,54.87
2022-12-14T21:06:52.630Z,65.90
2022-12-14T21:09:20.021Z,60.57
2022-12-14T21:12:08.075Z,70.53
2022-12-14T21:14:37.770Z,71.63
2022-12-14T21:17:05.630Z,110.43
2022-12-14T21:19:33.647Z,112.63
2022-12-14T21:22:01.078Z,87.17
2022-12-14T21:25:01.005Z,85.20
2022-12-14T21:27:21.489Z,76.43
2022-12-14T21:29:49.043Z,58.20
2022-12-14T21:32:17.147Z,48.67
2022-12-14T21:34:44.774Z,46.03
2022-12-14T21:37:12.525Z,47.43
2022-12-14T21:39:40.315Z,40.13
2022-12-14T21:42:10.716Z,46.30
2022-12-14T21:44:38.553Z,42.60
2022-12-14T21:47:07.295Z,43.63
2022-12-14T21:49:37.449Z,38.53
2022-12-14T21:52:07.496Z,45.63
2022-12-14T21:54:35.844Z,40.10
2022-12-14T21:57:22.617Z,37.43
2022-12-14T21:59:50.100Z,38.63
2022-12-14T22:02:19.877Z,39.67
2022-12-14T22:04:47.784Z,34.63
2022-12-14T22:07:16.554Z,49.80
2022-12-14T22:09:49.617Z,41.60
2022-12-14T22:12:18.468Z,38.20
2022-12-14T22:14:45.895Z,40.47
2022-12-14T22:17:17.963Z,40.57
2022-12-14T22:19:45.588Z,36.47
2022-12-14T22:22:16.697Z,34.73
2022-12-14T22:24:47.053Z,36.23
2022-12-14T22:27:15.054Z,49.70
2022-12-14T22:29:42.597Z,41.53
2022-12-14T22:32:12.328Z,42.13
2022-12-14T22:34:41.094Z,54.83
2022-12-14T22:37:08.717Z,47.40
2022-12-14T22:39:36.227Z,33.97
2022-12-14T22:42:03.783Z,43.87
2022-12-14T22:44:31.283Z,65.45
2022-12-14T22:46:58.864Z,55.90
2022-12-14T22:49:26.479Z,51.03
2022-12-14T22:51:53.913Z,47.87
2022-12-14T22:54:25.793Z,34.53
2022-12-14T22:57:13.485Z,44.87
2022-12-14T23:00:04.731Z,40.57
2022-12-14T23:02:32.393Z,54.50
2022-12-14T23:05:00.044Z,41.97
2022-12-14T23:07:27.474Z,47.23
2022-12-14T23:10:13.516Z,52.17
2022-12-14T23:12:59.585Z,49.50
2022-12-14T23:15:45.738Z,55.10
2022-12-14T23:18:31.933Z,44.20
2022-12-14T23:21:18.005Z,67.03
2022-12-14T23:24:05.171Z,47.60
2022-12-14T23:26:52.910Z,46.07
2022-12-14T23:29:38.872Z,44.00
2022-12-14T23:32:24.892Z,49.70
2022-12-14T23:35:10.811Z,62.83
2022-12-14T23:37:56.832Z,62.00
2022-12-14T23:40:43.286Z,71.70
2022-12-14T23:43:34.205Z,67.53
2022-12-14T23:46:21.226Z,73.33
2022-12-14T23:49:12.059Z,58.93
2022-12-14T23:52:03.432Z,60.27
2022-12-14T23:54:49.407Z,55.73
2022-12-14T23:57:36.215Z,59.80
